sensor_id;sensor_type;location;lat;lon;timestamp;P1;durP1;ratioP1;P2;durP2;ratioP2
15385;SDS011;7791;47.246;9.648;2023-11-21T00:00:28;8.73;;;4.33;;
15385;SDS011;7791;47.246;9.648;2023-11-21T00:03:22;10.87;;;4.43;;
15385;SDS011;7791;47.246;9.648;2023-11-21T00:05:57;9.07;;;4.30;;
15385;SDS011;7791;47.246;9.648;2023-11-21T00:11:40;11.43;;;4.27;;
15385;SDS011;7791;47.246;9.648;2023-11-21T00:14:14;11.07;;;5.07;;
15385;SDS011;7791;47.246;9.648;2023-11-21T00:17:00;10.27;;;5.00;;
15385;SDS011;7791;47.246;9.648;2023-11-21T00:22:30;13.97;;;4.97;;
15385;SDS011;7791;47.246;9.648;2023-11-21T00:25:24;8.93;;;4.97;;
15385;SDS011;7791;47.246;9.648;2023-11-21T00:28:04;11.33;;;5.40;;
15385;SDS011;7791;47.246;9.648;2023-11-21T00:30:57;6.53;;;4.37;;
15385;SDS011;7791;47.246;9.648;2023-11-21T00:36:44;8.53;;;5.07;;
15385;SDS011;7791;47.246;9.648;2023-11-21T00:42:05;8.73;;;5.20;;
15385;SDS011;7791;47.246;9.648;2023-11-21T00:44:46;10.43;;;5.20;;
15385;SDS011;7791;47.246;9.648;2023-11-21T00:47:47;9.67;;;5.00;;
15385;SDS011;7791;47.246;9.648;2023-11-21T00:50:23;10.27;;;5.37;;
15385;SDS011;7791;47.246;9.648;2023-11-21T00:52:53;9.07;;;5.73;;
15385;SDS011;7791;47.246;9.648;2023-11-21T00:55:35;10.67;;;6.30;;
15385;SDS011;7791;47.246;9.648;2023-11-21T00:58:26;11.27;;;5.20;;
15385;SDS011;7791;47.246;9.648;2023-11-21T01:01:12;10.37;;;4.70;;
15385;SDS011;7791;47.246;9.648;2023-11-21T01:03:48;9.50;;;5.13;;
15385;SDS011;7791;47.246;9.648;2023-11-21T01:06:20;10.93;;;4.97;;
15385;SDS011;7791;47.246;9.648;2023-11-21T01:08:53;9.73;;;5.00;;
15385;SDS011;7791;47.246;9.648;2023-11-21T01:11:42;7.60;;;5.07;;
15385;SDS011;7791;47.246;9.648;2023-11-21T01:14:21;12.50;;;5.83;;
15385;SDS011;7791;47.246;9.648;2023-11-21T01:16:57;7.53;;;5.03;;
15385;SDS011;7791;47.246;9.648;2023-11-21T01:19:56;11.90;;;5.50;;
15385;SDS011;7791;47.246;9.648;2023-11-21T01:22:33;12.13;;;5.73;;
15385;SDS011;7791;47.246;9.648;2023-11-21T01:25:09;11.03;;;5.63;;
15385;SDS011;7791;47.246;9.648;2023-11-21T01:27:49;10.50;;;5.37;;
15385;SDS011;7791;47.246;9.648;2023-11-21T01:30:23;7.77;;;5.27;;
15385;SDS011;7791;47.246;9.648;2023-11-21T01:32:59;7.93;;;4.70;;
15385;SDS011;7791;47.246;9.648;2023-11-21T01:35:42;9.53;;;4.70;;
15385;SDS011;7791;47.246;9.648;2023-11-21T01:38:32;11.40;;;5.50;;
15385;SDS011;7791;47.246;9.648;2023-11-21T01:41:11;12.23;;;5.37;;
15385;SDS011;7791;47.246;9.648;2023-11-21T01:43:57;9.87;;;4.93;;
15385;SDS011;7791;47.246;9.648;2023-11-21T01:46:33;10.03;;;5.10;;
15385;SDS011;7791;47.246;9.648;2023-11-21T01:49:22;13.10;;;5.23;;
15385;SDS011;7791;47.246;9.648;2023-11-21T01:51:58;8.90;;;5.13;;
15385;SDS011;7791;47.246;9.648;2023-11-21T01:55:21;10.03;;;4.70;;
15385;SDS011;7791;47.246;9.648;2023-11-21T01:57:49;8.33;;;4.30;;
15385;SDS011;7791;47.246;9.648;2023-11-21T02:06:02;9.07;;;5.03;;
15385;SDS011;7791;47.246;9.648;2023-11-21T02:08:47;8.90;;;5.20;;
15385;SDS011;7791;47.246;9.648;2023-11-21T02:11:28;9.33;;;4.73;;
15385;SDS011;7791;47.246;9.648;2023-11-21T02:14:01;9.37;;;5.43;;
15385;SDS011;7791;47.246;9.648;2023-11-21T02:16:56;9.57;;;4.77;;
15385;SDS011;7791;47.246;9.648;2023-11-21T02:19:32;9.43;;;4.20;;
15385;SDS011;7791;47.246;9.648;2023-11-21T02:22:17;7.67;;;4.30;;
15385;SDS011;7791;47.246;9.648;2023-11-21T02:24:57;5.37;;;3.80;;
15385;SDS011;7791;47.246;9.648;2023-11-21T02:27:55;10.33;;;3.83;;
15385;SDS011;7791;47.246;9.648;2023-11-21T02:30:41;5.30;;;3.73;;
15385;SDS011;7791;47.246;9.648;2023-11-21T02:33:23;8.37;;;3.83;;
15385;SDS011;7791;47.246;9.648;2023-11-21T02:36:01;7.83;;;3.93;;
15385;SDS011;7791;47.246;9.648;2023-11-21T02:38:35;6.37;;;3.63;;
15385;SDS011;7791;47.246;9.648;2023-11-21T02:41:20;6.87;;;3.97;;
15385;SDS011;7791;47.246;9.648;2023-11-21T02:46:42;11.63;;;2.97;;
15385;SDS011;7791;47.246;9.648;2023-11-21T02:52:06;5.37;;;3.10;;
15385;SDS011;7791;47.246;9.648;2023-11-21T02:54:49;7.37;;;3.30;;
15385;SDS011;7791;47.246;9.648;2023-11-21T02:57:36;5.90;;;3.23;;
15385;SDS011;7791;47.246;9.648;2023-11-21T03:00:03;5.90;;;3.10;;
15385;SDS011;7791;47.246;9.648;2023-11-21T03:05:51;5.83;;;3.20;;
15385;SDS011;7791;47.246;9.648;2023-11-21T03:08:31;6.17;;;3.20;;
15385;SDS011;7791;47.246;9.648;2023-11-21T03:11:08;9.27;;;3.20;;
15385;SDS011;7791;47.246;9.648;2023-11-21T03:13:52;6.80;;;2.83;;
15385;SDS011;7791;47.246;9.648;2023-11-21T03:16:28;5.60;;;3.40;;
15385;SDS011;7791;47.246;9.648;2023-11-21T03:19:02;6.47;;;3.60;;
15385;SDS011;7791;47.246;9.648;2023-11-21T03:21:37;6.53;;;3.67;;
15385;SDS011;7791;47.246;9.648;2023-11-21T03:24:15;5.90;;;3.70;;
15385;SDS011;7791;47.246;9.648;2023-11-21T03:27:02;7.43;;;3.90;;
15385;SDS011;7791;47.246;9.648;2023-11-21T03:29:52;5.70;;;3.83;;
15385;SDS011;7791;47.246;9.648;2023-11-21T03:32:35;6.77;;;3.60;;
15385;SDS011;7791;47.246;9.648;2023-11-21T03:35:29;7.13;;;3.30;;
15385;SDS011;7791;47.246;9.648;2023-11-21T03:38:17;7.37;;;3.40;;
15385;SDS011;7791;47.246;9.648;2023-11-21T03:41:11;7.83;;;3.33;;
15385;SDS011;7791;47.246;9.648;2023-11-21T03:46:35;7.03;;;3.23;;
15385;SDS011;7791;47.246;9.648;2023-11-21T03:49:11;7.37;;;3.47;;
15385;SDS011;7791;47.246;9.648;2023-11-21T03:51:51;5.60;;;3.50;;
15385;SDS011;7791;47.246;9.648;2023-11-21T03:54:20;7.67;;;3.67;;
15385;SDS011;7791;47.246;9.648;2023-11-21T03:56:58;5.37;;;3.23;;
15385;SDS011;7791;47.246;9.648;2023-11-21T03:59:34;9.27;;;3.63;;
15385;SDS011;7791;47.246;9.648;2023-11-21T04:02:18;7.33;;;3.30;;
15385;SDS011;7791;47.246;9.648;2023-11-21T04:07:45;5.17;;;3.20;;
15385;SDS011;7791;47.246;9.648;2023-11-21T04:10:45;7.83;;;3.37;;
15385;SDS011;7791;47.246;9.648;2023-11-21T04:13:27;8.77;;;4.00;;
15385;SDS011;7791;47.246;9.648;2023-11-21T04:16:18;9.50;;;3.97;;
15385;SDS011;7791;47.246;9.648;2023-11-21T04:21:39;10.43;;;5.20;;
15385;SDS011;7791;47.246;9.648;2023-11-21T04:24:15;9.97;;;5.33;;
15385;SDS011;7791;47.246;9.648;2023-11-21T04:26:53;10.20;;;5.10;;
15385;SDS011;7791;47.246;9.648;2023-11-21T04:29:25;7.27;;;4.90;;
15385;SDS011;7791;47.246;9.648;2023-11-21T04:32:04;17.50;;;5.20;;
15385;SDS011;7791;47.246;9.648;2023-11-21T04:34:58;8.23;;;4.60;;
15385;SDS011;7791;47.246;9.648;2023-11-21T04:37:52;7.67;;;4.60;;
15385;SDS011;7791;47.246;9.648;2023-11-21T04:40:35;7.63;;;4.33;;
15385;SDS011;7791;47.246;9.648;2023-11-21T04:43:15;8.17;;;4.07;;
15385;SDS011;7791;47.246;9.648;2023-11-21T04:49:14;8.60;;;5.10;;
15385;SDS011;7791;47.246;9.648;2023-11-21T04:52:08;8.23;;;4.77;;
15385;SDS011;7791;47.246;9.648;2023-11-21T04:54:58;9.20;;;4.47;;
15385;SDS011;7791;47.246;9.648;2023-11-21T04:57:28;9.10;;;4.83;;
15385;SDS011;7791;47.246;9.648;2023-11-21T05:00:20;8.57;;;4.67;;
15385;SDS011;7791;47.246;9.648;2023-11-21T05:03:30;11.07;;;5.10;;
15385;SDS011;7791;47.246;9.648;2023-11-21T05:05:57;7.77;;;5.00;;
15385;SDS011;7791;47.246;9.648;2023-11-21T05:08:33;7.30;;;5.10;;
15385;SDS011;7791;47.246;9.648;2023-11-21T05:14:03;9.00;;;5.33;;
15385;SDS011;7791;47.246;9.648;2023-11-21T05:19:33;11.87;;;5.57;;
15385;SDS011;7791;47.246;9.648;2023-11-21T05:22:21;9.67;;;5.27;;
15385;SDS011;7791;47.246;9.648;2023-11-21T05:24:52;8.53;;;4.97;;
15385;SDS011;7791;47.246;9.648;2023-11-21T05:27:28;9.10;;;5.50;;
15385;SDS011;7791;47.246;9.648;2023-11-21T05:30:10;8.90;;;5.43;;
15385;SDS011;7791;47.246;9.648;2023-11-21T05:32:54;11.30;;;6.80;;
15385;SDS011;7791;47.246;9.648;2023-11-21T05:35:34;8.87;;;5.53;;
15385;SDS011;7791;47.246;9.648;2023-11-21T05:38:11;11.90;;;6.33;;
15385;SDS011;7791;47.246;9.648;2023-11-21T05:43:47;11.67;;;5.20;;
15385;SDS011;7791;47.246;9.648;2023-11-21T05:46:29;12.93;;;5.47;;
15385;SDS011;7791;47.246;9.648;2023-11-21T05:49:02;12.27;;;5.43;;
15385;SDS011;7791;47.246;9.648;2023-11-21T05:51:31;9.90;;;6.10;;
15385;SDS011;7791;47.246;9.648;2023-11-21T05:54:03;12.00;;;6.83;;
15385;SDS011;7791;47.246;9.648;2023-11-21T05:56:40;12.37;;;8.00;;
15385;SDS011;7791;47.246;9.648;2023-11-21T06:05:17;12.13;;;7.23;;
15385;SDS011;7791;47.246;9.648;2023-11-21T06:08:13;13.27;;;8.00;;
15385;SDS011;7791;47.246;9.648;2023-11-21T06:11:04;14.03;;;7.47;;
15385;SDS011;7791;47.246;9.648;2023-11-21T06:13:46;13.27;;;6.70;;
15385;SDS011;7791;47.246;9.648;2023-11-21T06:16:22;17.67;;;10.20;;
15385;SDS011;7791;47.246;9.648;2023-11-21T06:19:13;19.17;;;11.13;;
15385;SDS011;7791;47.246;9.648;2023-11-21T06:21:57;12.87;;;9.67;;
15385;SDS011;7791;47.246;9.648;2023-11-21T06:24:27;15.97;;;8.57;;
15385;SDS011;7791;47.246;9.648;2023-11-21T06:27:04;12.80;;;7.53;;
15385;SDS011;7791;47.246;9.648;2023-11-21T06:29:39;13.60;;;7.77;;
15385;SDS011;7791;47.246;9.648;2023-11-21T06:32:14;12.83;;;7.60;;
15385;SDS011;7791;47.246;9.648;2023-11-21T06:34:50;16.07;;;8.03;;
15385;SDS011;7791;47.246;9.648;2023-11-21T06:37:25;14.97;;;8.20;;
15385;SDS011;7791;47.246;9.648;2023-11-21T06:39:58;21.97;;;13.67;;
15385;SDS011;7791;47.246;9.648;2023-11-21T06:42:51;20.90;;;12.10;;
15385;SDS011;7791;47.246;9.648;2023-11-21T06:45:22;23.70;;;13.20;;
15385;SDS011;7791;47.246;9.648;2023-11-21T06:47:57;15.13;;;9.43;;
15385;SDS011;7791;47.246;9.648;2023-11-21T06:53:41;17.40;;;9.83;;
15385;SDS011;7791;47.246;9.648;2023-11-21T06:59:28;15.90;;;8.63;;
15385;SDS011;7791;47.246;9.648;2023-11-21T07:02:32;12.17;;;7.90;;
15385;SDS011;7791;47.246;9.648;2023-11-21T07:05:01;17.07;;;11.23;;
15385;SDS011;7791;47.246;9.648;2023-11-21T07:07:40;25.57;;;15.87;;
15385;SDS011;7791;47.246;9.648;2023-11-21T07:13:22;15.33;;;10.23;;
15385;SDS011;7791;47.246;9.648;2023-11-21T07:16:01;16.03;;;9.57;;
15385;SDS011;7791;47.246;9.648;2023-11-21T07:18:41;14.70;;;8.33;;
15385;SDS011;7791;47.246;9.648;2023-11-21T07:21:22;23.83;;;9.17;;
15385;SDS011;7791;47.246;9.648;2023-11-21T07:23:53;19.87;;;8.93;;
15385;SDS011;7791;47.246;9.648;2023-11-21T07:26:25;18.20;;;8.53;;
15385;SDS011;7791;47.246;9.648;2023-11-21T07:29:06;17.93;;;9.13;;
15385;SDS011;7791;47.246;9.648;2023-11-21T07:31:44;15.93;;;9.30;;
15385;SDS011;7791;47.246;9.648;2023-11-21T07:34:25;15.47;;;9.77;;
15385;SDS011;7791;47.246;9.648;2023-11-21T07:37:19;14.57;;;7.80;;
15385;SDS011;7791;47.246;9.648;2023-11-21T07:39:57;13.60;;;7.67;;
15385;SDS011;7791;47.246;9.648;2023-11-21T07:42:36;20.87;;;9.93;;
15385;SDS011;7791;47.246;9.648;2023-11-21T07:45:07;19.23;;;9.47;;
15385;SDS011;7791;47.246;9.648;2023-11-21T07:50:34;25.50;;;10.77;;
15385;SDS011;7791;47.246;9.648;2023-11-21T07:56:04;26.53;;;13.73;;
15385;SDS011;7791;47.246;9.648;2023-11-21T07:58:42;55.80;;;24.47;;
15385;SDS011;7791;47.246;9.648;2023-11-21T08:01:18;33.33;;;14.77;;
15385;SDS011;7791;47.246;9.648;2023-11-21T08:03:47;42.50;;;17.60;;
15385;SDS011;7791;47.246;9.648;2023-11-21T08:06:29;28.57;;;13.70;;
15385;SDS011;7791;47.246;9.648;2023-11-21T08:09:07;33.93;;;14.40;;
15385;SDS011;7791;47.246;9.648;2023-11-21T08:11:40;22.83;;;11.43;;
15385;SDS011;7791;47.246;9.648;2023-11-21T08:14:17;17.47;;;8.40;;
15385;SDS011;7791;47.246;9.648;2023-11-21T08:16:58;14.10;;;9.87;;
15385;SDS011;7791;47.246;9.648;2023-11-21T08:19:38;16.73;;;9.43;;
15385;SDS011;7791;47.246;9.648;2023-11-21T08:25:10;19.00;;;11.07;;
15385;SDS011;7791;47.246;9.648;2023-11-21T08:27:42;26.23;;;12.83;;
15385;SDS011;7791;47.246;9.648;2023-11-21T08:30:18;23.43;;;12.90;;
15385;SDS011;7791;47.246;9.648;2023-11-21T08:32:49;27.33;;;13.20;;
15385;SDS011;7791;47.246;9.648;2023-11-21T08:35:29;15.70;;;8.33;;
15385;SDS011;7791;47.246;9.648;2023-11-21T08:38:00;12.17;;;6.53;;
15385;SDS011;7791;47.246;9.648;2023-11-21T08:40:31;12.93;;;6.23;;
15385;SDS011;7791;47.246;9.648;2023-11-21T08:43:04;11.13;;;5.40;;
15385;SDS011;7791;47.246;9.648;2023-11-21T08:45:43;12.80;;;5.87;;
15385;SDS011;7791;47.246;9.648;2023-11-21T08:48:18;12.20;;;6.00;;
15385;SDS011;7791;47.246;9.648;2023-11-21T08:50:59;15.73;;;5.93;;
15385;SDS011;7791;47.246;9.648;2023-11-21T08:53:35;10.40;;;5.43;;
15385;SDS011;7791;47.246;9.648;2023-11-21T08:56:07;9.47;;;4.90;;
15385;SDS011;7791;47.246;9.648;2023-11-21T08:58:42;8.30;;;5.17;;
15385;SDS011;7791;47.246;9.648;2023-11-21T09:01:19;10.03;;;4.60;;
15385;SDS011;7791;47.246;9.648;2023-11-21T09:04:14;9.50;;;3.40;;
15385;SDS011;7791;47.246;9.648;2023-11-21T09:06:51;8.63;;;4.40;;
15385;SDS011;7791;47.246;9.648;2023-11-21T09:09:34;9.87;;;5.00;;
15385;SDS011;7791;47.246;9.648;2023-11-21T09:12:16;7.40;;;4.23;;
15385;SDS011;7791;47.246;9.648;2023-11-21T09:14:51;11.90;;;6.77;;
15385;SDS011;7791;47.246;9.648;2023-11-21T09:17:46;16.63;;;7.17;;
15385;SDS011;7791;47.246;9.648;2023-11-21T09:20:19;13.53;;;6.97;;
15385;SDS011;7791;47.246;9.648;2023-11-21T09:22:54;6.17;;;2.90;;
15385;SDS011;7791;47.246;9.648;2023-11-21T09:25:30;7.63;;;3.33;;
15385;SDS011;7791;47.246;9.648;2023-11-21T09:28:05;6.07;;;3.10;;
15385;SDS011;7791;47.246;9.648;2023-11-21T09:33:57;6.30;;;2.40;;
15385;SDS011;7791;47.246;9.648;2023-11-21T09:36:39;6.67;;;2.20;;
15385;SDS011;7791;47.246;9.648;2023-11-21T09:39:19;5.40;;;2.27;;
15385;SDS011;7791;47.246;9.648;2023-11-21T09:42:04;2.93;;;1.67;;
15385;SDS011;7791;47.246;9.648;2023-11-21T09:44:50;5.83;;;2.63;;
15385;SDS011;7791;47.246;9.648;2023-11-21T09:47:37;4.63;;;2.00;;
15385;SDS011;7791;47.246;9.648;2023-11-21T09:50:27;4.30;;;2.40;;
15385;SDS011;7791;47.246;9.648;2023-11-21T09:56:28;3.87;;;1.87;;
15385;SDS011;7791;47.246;9.648;2023-11-21T09:59:15;3.97;;;1.60;;
15385;SDS011;7791;47.246;9.648;2023-11-21T10:01:47;6.27;;;1.67;;
15385;SDS011;7791;47.246;9.648;2023-11-21T10:04:20;5.30;;;1.70;;
15385;SDS011;7791;47.246;9.648;2023-11-21T10:06:58;4.80;;;1.37;;
15385;SDS011;7791;47.246;9.648;2023-11-21T10:09:34;3.87;;;1.67;;
15385;SDS011;7791;47.246;9.648;2023-11-21T10:12:17;3.73;;;1.57;;
15385;SDS011;7791;47.246;9.648;2023-11-21T10:14:57;7.60;;;1.40;;
15385;SDS011;7791;47.246;9.648;2023-11-21T10:17:34;4.17;;;2.60;;
15385;SDS011;7791;47.246;9.648;2023-11-21T10:20:30;3.33;;;1.80;;
15385;SDS011;7791;47.246;9.648;2023-11-21T10:23:13;4.07;;;1.87;;
15385;SDS011;7791;47.246;9.648;2023-11-21T10:26:03;5.33;;;1.63;;
15385;SDS011;7791;47.246;9.648;2023-11-21T10:28:38;6.73;;;1.50;;
15385;SDS011;7791;47.246;9.648;2023-11-21T10:31:29;6.83;;;2.17;;
15385;SDS011;7791;47.246;9.648;2023-11-21T10:34:19;5.23;;;2.10;;
15385;SDS011;7791;47.246;9.648;2023-11-21T10:37:02;5.93;;;1.97;;
15385;SDS011;7791;47.246;9.648;2023-11-21T10:42:33;3.87;;;2.20;;
15385;SDS011;7791;47.246;9.648;2023-11-21T10:45:22;7.63;;;3.00;;
15385;SDS011;7791;47.246;9.648;2023-11-21T10:48:04;6.20;;;2.70;;
15385;SDS011;7791;47.246;9.648;2023-11-21T10:50:55;5.77;;;2.87;;
15385;SDS011;7791;47.246;9.648;2023-11-21T10:53:49;6.57;;;2.97;;
15385;SDS011;7791;47.246;9.648;2023-11-21T10:59:33;6.07;;;2.57;;
15385;SDS011;7791;47.246;9.648;2023-11-21T11:02:17;4.60;;;2.47;;
15385;SDS011;7791;47.246;9.648;2023-11-21T11:04:49;4.07;;;2.47;;
15385;SDS011;7791;47.246;9.648;2023-11-21T11:07:35;3.40;;;1.97;;
15385;SDS011;7791;47.246;9.648;2023-11-21T11:10:23;4.40;;;2.20;;
15385;SDS011;7791;47.246;9.648;2023-11-21T11:12:57;4.43;;;2.30;;
15385;SDS011;7791;47.246;9.648;2023-11-21T11:15:29;7.00;;;3.00;;
15385;SDS011;7791;47.246;9.648;2023-11-21T11:18:15;5.90;;;2.97;;
15385;SDS011;7791;47.246;9.648;2023-11-21T11:21:11;5.47;;;2.70;;
15385;SDS011;7791;47.246;9.648;2023-11-21T11:24:05;4.97;;;2.80;;
15385;SDS011;7791;47.246;9.648;2023-11-21T11:29:43;8.43;;;2.60;;
15385;SDS011;7791;47.246;9.648;2023-11-21T11:32:36;3.57;;;2.03;;
15385;SDS011;7791;47.246;9.648;2023-11-21T11:35:29;5.40;;;2.30;;
15385;SDS011;7791;47.246;9.648;2023-11-21T11:38:18;3.53;;;2.50;;
15385;SDS011;7791;47.246;9.648;2023-11-21T11:41:03;4.03;;;2.07;;
15385;SDS011;7791;47.246;9.648;2023-11-21T11:43:34;4.97;;;2.43;;
15385;SDS011;7791;47.246;9.648;2023-11-21T11:46:18;5.50;;;2.50;;
15385;SDS011;7791;47.246;9.648;2023-11-21T11:54:53;3.40;;;2.10;;
15385;SDS011;7791;47.246;9.648;2023-11-21T11:57:48;2.27;;;1.20;;
15385;SDS011;7791;47.246;9.648;2023-11-21T12:00:38;2.93;;;1.17;;
15385;SDS011;7791;47.246;9.648;2023-11-21T12:03:23;1.73;;;0.80;;
15385;SDS011;7791;47.246;9.648;2023-11-21T12:06:11;0.57;;;0.53;;
15385;SDS011;7791;47.246;9.648;2023-11-21T12:09:01;1.43;;;0.67;;
15385;SDS011;7791;47.246;9.648;2023-11-21T12:11:47;2.03;;;0.73;;
15385;SDS011;7791;47.246;9.648;2023-11-21T12:20:18;1.70;;;0.70;;
15385;SDS011;7791;47.246;9.648;2023-11-21T12:22:49;3.20;;;0.80;;
15385;SDS011;7791;47.246;9.648;2023-11-21T12:25:28;3.13;;;0.90;;
15385;SDS011;7791;47.246;9.648;2023-11-21T12:28:02;2.10;;;0.73;;
15385;SDS011;7791;47.246;9.648;2023-11-21T12:31:16;0.90;;;0.70;;
15385;SDS011;7791;47.246;9.648;2023-11-21T12:33:48;6.10;;;1.10;;
15385;SDS011;7791;47.246;9.648;2023-11-21T12:36:25;2.53;;;0.70;;
15385;SDS011;7791;47.246;9.648;2023-11-21T12:39:17;1.37;;;0.40;;
15385;SDS011;7791;47.246;9.648;2023-11-21T12:42:15;2.00;;;0.83;;
15385;SDS011;7791;47.246;9.648;2023-11-21T12:44:45;0.97;;;0.63;;
15385;SDS011;7791;47.246;9.648;2023-11-21T12:47:37;2.10;;;0.70;;
15385;SDS011;7791;47.246;9.648;2023-11-21T12:53:16;1.97;;;0.90;;
15385;SDS011;7791;47.246;9.648;2023-11-21T12:56:07;2.10;;;1.07;;
15385;SDS011;7791;47.246;9.648;2023-11-21T12:58:49;2.10;;;1.07;;
15385;SDS011;7791;47.246;9.648;2023-11-21T13:01:26;1.30;;;0.80;;
15385;SDS011;7791;47.246;9.648;2023-11-21T13:03:58;1.60;;;0.90;;
15385;SDS011;7791;47.246;9.648;2023-11-21T13:06:41;2.27;;;0.97;;
15385;SDS011;7791;47.246;9.648;2023-11-21T13:09:18;2.40;;;0.70;;
15385;SDS011;7791;47.246;9.648;2023-11-21T13:12:05;2.33;;;1.17;;
15385;SDS011;7791;47.246;9.648;2023-11-21T13:14:41;1.50;;;0.73;;
15385;SDS011;7791;47.246;9.648;2023-11-21T13:20:01;1.40;;;0.60;;
15385;SDS011;7791;47.246;9.648;2023-11-21T13:22:35;2.03;;;0.60;;
15385;SDS011;7791;47.246;9.648;2023-11-21T13:28:03;2.40;;;0.80;;
15385;SDS011;7791;47.246;9.648;2023-11-21T13:30:51;1.23;;;0.80;;
15385;SDS011;7791;47.246;9.648;2023-11-21T13:33:27;1.43;;;0.70;;
15385;SDS011;7791;47.246;9.648;2023-11-21T13:38:49;2.90;;;0.53;;
15385;SDS011;7791;47.246;9.648;2023-11-21T13:41:24;1.60;;;0.60;;
15385;SDS011;7791;47.246;9.648;2023-11-21T13:43:57;3.17;;;1.40;;
15385;SDS011;7791;47.246;9.648;2023-11-21T13:46:55;1.37;;;0.73;;
15385;SDS011;7791;47.246;9.648;2023-11-21T13:51:03;2.23;;;0.63;;
15385;SDS011;7791;47.246;9.648;2023-11-21T13:52:25;0.70;;;0.60;;
15385;SDS011;7791;47.246;9.648;2023-11-21T13:55:18;2.60;;;0.70;;
15385;SDS011;7791;47.246;9.648;2023-11-21T13:57:59;4.00;;;0.70;;
15385;SDS011;7791;47.246;9.648;2023-11-21T14:00:45;1.07;;;0.60;;
15385;SDS011;7791;47.246;9.648;2023-11-21T14:03:30;1.70;;;0.97;;
15385;SDS011;7791;47.246;9.648;2023-11-21T14:06:06;4.40;;;1.10;;
15385;SDS011;7791;47.246;9.648;2023-11-21T14:09:32;0.87;;;0.67;;
15385;SDS011;7791;47.246;9.648;2023-11-21T14:11:28;0.90;;;0.70;;
15385;SDS011;7791;47.246;9.648;2023-11-21T14:14:15;3.17;;;1.40;;
15385;SDS011;7791;47.246;9.648;2023-11-21T14:16:56;2.83;;;1.40;;
15385;SDS011;7791;47.246;9.648;2023-11-21T14:19:34;3.97;;;0.87;;
15385;SDS011;7791;47.246;9.648;2023-11-21T14:22:22;2.67;;;0.80;;
15385;SDS011;7791;47.246;9.648;2023-11-21T14:25:19;1.67;;;0.50;;
15385;SDS011;7791;47.246;9.648;2023-11-21T14:28:08;1.17;;;0.60;;
15385;SDS011;7791;47.246;9.648;2023-11-21T14:30:56;0.80;;;0.40;;
15385;SDS011;7791;47.246;9.648;2023-11-21T14:33:35;0.67;;;0.27;;
15385;SDS011;7791;47.246;9.648;2023-11-21T14:36:06;0.57;;;0.30;;
15385;SDS011;7791;47.246;9.648;2023-11-21T14:38:39;0.50;;;0.30;;
15385;SDS011;7791;47.246;9.648;2023-11-21T14:41:09;2.90;;;0.83;;
15385;SDS011;7791;47.246;9.648;2023-11-21T14:43:42;1.63;;;0.80;;
15385;SDS011;7791;47.246;9.648;2023-11-21T14:46:15;4.20;;;3.17;;
15385;SDS011;7791;47.246;9.648;2023-11-21T14:48:47;1.10;;;0.60;;
15385;SDS011;7791;47.246;9.648;2023-11-21T14:51:44;9.77;;;8.83;;
15385;SDS011;7791;47.246;9.648;2023-11-21T14:54:31;10.10;;;9.10;;
15385;SDS011;7791;47.246;9.648;2023-11-21T14:57:03;7.13;;;6.53;;
15385;SDS011;7791;47.246;9.648;2023-11-21T14:59:42;1.33;;;0.73;;
15385;SDS011;7791;47.246;9.648;2023-11-21T15:02:23;2.10;;;0.77;;
15385;SDS011;7791;47.246;9.648;2023-11-21T15:05:10;1.70;;;0.90;;
15385;SDS011;7791;47.246;9.648;2023-11-21T15:10:38;1.63;;;0.80;;
15385;SDS011;7791;47.246;9.648;2023-11-21T15:13:20;2.53;;;0.80;;
15385;SDS011;7791;47.246;9.648;2023-11-21T15:15:53;1.17;;;0.80;;
15385;SDS011;7791;47.246;9.648;2023-11-21T15:24:19;1.93;;;1.50;;
15385;SDS011;7791;47.246;9.648;2023-11-21T15:29:39;2.10;;;1.30;;
15385;SDS011;7791;47.246;9.648;2023-11-21T15:32:25;2.07;;;1.50;;
15385;SDS011;7791;47.246;9.648;2023-11-21T15:35:12;3.03;;;1.63;;
15385;SDS011;7791;47.246;9.648;2023-11-21T15:37:43;5.53;;;2.23;;
15385;SDS011;7791;47.246;9.648;2023-11-21T15:43:05;5.33;;;3.27;;
15385;SDS011;7791;47.246;9.648;2023-11-21T15:45:53;3.93;;;2.70;;
15385;SDS011;7791;47.246;9.648;2023-11-21T15:48:25;4.67;;;2.57;;
15385;SDS011;7791;47.246;9.648;2023-11-21T15:51:00;5.27;;;2.93;;
15385;SDS011;7791;47.246;9.648;2023-11-21T15:53:45;2.73;;;1.90;;
15385;SDS011;7791;47.246;9.648;2023-11-21T15:56:30;6.50;;;2.53;;
15385;SDS011;7791;47.246;9.648;2023-11-21T16:00:52;31.20;;;17.17;;
15385;SDS011;7791;47.246;9.648;2023-11-21T16:05:00;10.03;;;6.17;;
15385;SDS011;7791;47.246;9.648;2023-11-21T16:10:31;6.83;;;3.33;;
15385;SDS011;7791;47.246;9.648;2023-11-21T16:13:04;6.93;;;3.70;;
15385;SDS011;7791;47.246;9.648;2023-11-21T16:15:40;3.77;;;2.20;;
15385;SDS011;7791;47.246;9.648;2023-11-21T16:18:12;5.63;;;2.40;;
15385;SDS011;7791;47.246;9.648;2023-11-21T16:21:05;3.90;;;2.53;;
15385;SDS011;7791;47.246;9.648;2023-11-21T16:23:43;50.30;;;37.20;;
15385;SDS011;7791;47.246;9.648;2023-11-21T16:26:24;43.03;;;31.37;;
15385;SDS011;7791;47.246;9.648;2023-11-21T16:29:04;9.23;;;4.73;;
15385;SDS011;7791;47.246;9.648;2023-11-21T16:31:37;5.03;;;1.70;;
15385;SDS011;7791;47.246;9.648;2023-11-21T16:34:19;5.20;;;1.33;;
15385;SDS011;7791;47.246;9.648;2023-11-21T16:36:54;5.83;;;2.50;;
15385;SDS011;7791;47.246;9.648;2023-11-21T16:39:41;5.57;;;2.60;;
15385;SDS011;7791;47.246;9.648;2023-11-21T16:42:31;5.00;;;3.17;;
15385;SDS011;7791;47.246;9.648;2023-11-21T16:45:15;6.00;;;3.07;;
15385;SDS011;7791;47.246;9.648;2023-11-21T16:48:01;6.97;;;3.67;;
15385;SDS011;7791;47.246;9.648;2023-11-21T16:50:36;25.43;;;12.87;;
15385;SDS011;7791;47.246;9.648;2023-11-21T16:53:17;45.23;;;22.57;;
15385;SDS011;7791;47.246;9.648;2023-11-21T16:55:52;34.83;;;17.40;;
15385;SDS011;7791;47.246;9.648;2023-11-21T16:58:43;25.40;;;14.40;;
15385;SDS011;7791;47.246;9.648;2023-11-21T17:01:18;14.00;;;7.57;;
15385;SDS011;7791;47.246;9.648;2023-11-21T17:03:57;12.43;;;7.20;;
15385;SDS011;7791;47.246;9.648;2023-11-21T17:06:35;15.50;;;8.43;;
15385;SDS011;7791;47.246;9.648;2023-11-21T17:09:17;80.30;;;42.40;;
15385;SDS011;7791;47.246;9.648;2023-11-21T17:12:00;30.63;;;17.23;;
15385;SDS011;7791;47.246;9.648;2023-11-21T17:14:44;19.83;;;10.80;;
15385;SDS011;7791;47.246;9.648;2023-11-21T17:17:22;11.50;;;6.53;;
15385;SDS011;7791;47.246;9.648;2023-11-21T17:19:58;57.93;;;31.20;;
15385;SDS011;7791;47.246;9.648;2023-11-21T17:22:39;3.90;;;3.03;;
15385;SDS011;7791;47.246;9.648;2023-11-21T17:25:14;4.30;;;2.10;;
15385;SDS011;7791;47.246;9.648;2023-11-21T17:27:59;10.77;;;3.20;;
15385;SDS011;7791;47.246;9.648;2023-11-21T17:31:00;8.00;;;3.80;;
15385;SDS011;7791;47.246;9.648;2023-11-21T17:33:45;10.90;;;5.20;;
15385;SDS011;7791;47.246;9.648;2023-11-21T17:36:36;7.03;;;4.87;;
15385;SDS011;7791;47.246;9.648;2023-11-21T17:39:18;8.23;;;5.23;;
15385;SDS011;7791;47.246;9.648;2023-11-21T17:42:00;10.33;;;5.97;;
15385;SDS011;7791;47.246;9.648;2023-11-21T17:44:41;11.77;;;6.90;;
15385;SDS011;7791;47.246;9.648;2023-11-21T17:47:16;11.63;;;6.67;;
15385;SDS011;7791;47.246;9.648;2023-11-21T17:49:49;11.17;;;6.47;;
15385;SDS011;7791;47.246;9.648;2023-11-21T17:52:39;10.07;;;7.00;;
15385;SDS011;7791;47.246;9.648;2023-11-21T17:55:21;11.03;;;6.87;;
15385;SDS011;7791;47.246;9.648;2023-11-21T18:06:37;15.57;;;8.07;;
15385;SDS011;7791;47.246;9.648;2023-11-21T18:09:08;12.53;;;7.97;;
15385;SDS011;7791;47.246;9.648;2023-11-21T18:14:31;11.43;;;7.30;;
15385;SDS011;7791;47.246;9.648;2023-11-21T18:17:19;12.40;;;8.10;;
15385;SDS011;7791;47.246;9.648;2023-11-21T18:20:03;13.17;;;7.97;;
15385;SDS011;7791;47.246;9.648;2023-11-21T18:22:41;13.23;;;8.17;;
15385;SDS011;7791;47.246;9.648;2023-11-21T18:25:17;11.00;;;7.83;;
15385;SDS011;7791;47.246;9.648;2023-11-21T18:27:50;13.83;;;7.77;;
15385;SDS011;7791;47.246;9.648;2023-11-21T18:30:39;7.17;;;4.90;;
15385;SDS011;7791;47.246;9.648;2023-11-21T18:33:32;6.57;;;4.27;;
15385;SDS011;7791;47.246;9.648;2023-11-21T18:36:09;7.70;;;5.43;;
15385;SDS011;7791;47.246;9.648;2023-11-21T18:38:44;8.80;;;4.80;;